sensor_id;sensor_type;location;lat;lon;timestamp;pressure;altitude;pressure_sealevel;temperature;humidity
72330;BME280;60660;52.076;5.110;2023-04-07T00:02:18;101551.24;;;8.52;39.10
72330;BME280;60660;52.076;5.110;2023-04-07T00:04:43;101552.06;;;7.45;39.92
72330;BME280;60660;52.076;5.110;2023-04-07T00:07:09;101552.04;;;7.69;40.02
72330;BME280;60660;52.076;5.110;2023-04-07T00:09:34;101552.74;;;7.96;38.85
72330;BME280;60660;52.076;5.110;2023-04-07T00:12:00;101551.54;;;8.72;38.73
72330;BME280;60660;52.076;5.110;2023-04-07T00:14:25;101551.04;;;7.03;40.50
72330;BME280;60660;52.076;5.110;2023-04-07T00:16:50;101557.18;;;7.98;39.62
72330;BME280;60660;52.076;5.110;2023-04-07T00:19:16;101557.26;;;7.93;39.62
72330;BME280;60660;52.076;5.110;2023-04-07T00:21:42;101553.47;;;7.42;40.04
72330;BME280;60660;52.076;5.110;2023-04-07T00:24:07;101554.83;;;7.96;39.53
72330;BME280;60660;52.076;5.110;2023-04-07T00:26:32;101558.00;;;8.69;38.84
72330;BME280;60660;52.076;5.110;2023-04-07T00:28:57;101559.29;;;7.08;40.57
72330;BME280;60660;52.076;5.110;2023-04-07T00:31:22;101558.57;;;7.94;39.71
72330;BME280;60660;52.076;5.110;2023-04-07T00:33:48;101553.52;;;7.66;40.04
72330;BME280;60660;52.076;5.110;2023-04-07T00:36:13;101554.42;;;7.36;40.22
72330;BME280;60660;52.076;5.110;2023-04-07T00:38:38;101550.86;;;7.08;40.03
72330;BME280;60660;52.076;5.110;2023-04-07T00:41:04;101556.41;;;8.19;39.41
72330;BME280;60660;52.076;5.110;2023-04-07T00:43:29;101555.28;;;7.11;40.72
72330;BME280;60660;52.076;5.110;2023-04-07T00:45:55;101559.30;;;6.54;41.18
72330;BME280;60660;52.076;5.110;2023-04-07T00:48:19;101559.68;;;8.05;39.48
72330;BME280;60660;52.076;5.110;2023-04-07T00:50:45;101559.21;;;8.39;38.59
72330;BME280;60660;52.076;5.110;2023-04-07T00:53:10;101556.15;;;9.06;37.84
72330;BME280;60660;52.076;5.110;2023-04-07T00:55:35;101560.43;;;6.86;39.19
72330;BME280;60660;52.076;5.110;2023-04-07T00:58:00;101560.53;;;7.66;39.79
72330;BME280;60660;52.076;5.110;2023-04-07T01:00:27;101561.45;;;9.44;37.78
72330;BME280;60660;52.076;5.110;2023-04-07T01:02:56;101564.25;;;8.31;38.92
72330;BME280;60660;52.076;5.110;2023-04-07T01:05:20;101566.59;;;8.15;39.36
72330;BME280;60660;52.076;5.110;2023-04-07T01:07:51;101568.21;;;7.26;39.98
72330;BME280;60660;52.076;5.110;2023-04-07T01:10:11;101571.41;;;7.76;40.00
72330;BME280;60660;52.076;5.110;2023-04-07T01:12:38;101571.36;;;8.30;38.97
72330;BME280;60660;52.076;5.110;2023-04-07T01:15:05;101565.37;;;7.14;40.03
72330;BME280;60660;52.076;5.110;2023-04-07T01:17:26;101565.82;;;8.07;40.10
72330;BME280;60660;52.076;5.110;2023-04-07T01:19:54;101564.19;;;7.57;40.16
72330;BME280;60660;52.076;5.110;2023-04-07T01:22:17;101568.16;;;7.36;40.15
72330;BME280;60660;52.076;5.110;2023-04-07T01:25:11;101571.07;;;6.08;41.98
72330;BME280;60660;52.076;5.110;2023-04-07T01:27:20;101568.33;;;8.06;40.29
72330;BME280;60660;52.076;5.110;2023-04-07T01:29:33;101571.77;;;8.70;38.76
72330;BME280;60660;52.076;5.110;2023-04-07T01:31:57;101570.92;;;7.94;39.46
72330;BME280;60660;52.076;5.110;2023-04-07T01:34:22;101566.92;;;8.02;38.46
72330;BME280;60660;52.076;5.110;2023-04-07T01:36:46;101568.46;;;9.11;37.23
72330;BME280;60660;52.076;5.110;2023-04-07T01:39:12;101568.99;;;7.61;39.10
72330;BME280;60660;52.076;5.110;2023-04-07T01:41:37;101569.58;;;7.83;38.97
72330;BME280;60660;52.076;5.110;2023-04-07T01:44:02;101567.18;;;8.67;38.50
72330;BME280;60660;52.076;5.110;2023-04-07T01:46:29;101566.92;;;8.67;38.44
72330;BME280;60660;52.076;5.110;2023-04-07T01:48:53;101569.28;;;6.57;40.58
72330;BME280;60660;52.076;5.110;2023-04-07T01:51:19;101567.67;;;7.39;40.61
72330;BME280;60660;52.076;5.110;2023-04-07T01:53:44;101568.62;;;7.92;39.23
72330;BME280;60660;52.076;5.110;2023-04-07T01:56:09;101575.57;;;8.09;39.46
72330;BME280;60660;52.076;5.110;2023-04-07T01:58:34;101574.24;;;6.61;40.03
72330;BME280;60660;52.076;5.110;2023-04-07T02:00:59;101575.41;;;7.89;39.47
72330;BME280;60660;52.076;5.110;2023-04-07T02:03:28;101581.57;;;8.56;38.59
72330;BME280;60660;52.076;5.110;2023-04-07T02:05:53;101581.54;;;8.84;38.18
72330;BME280;60660;52.076;5.110;2023-04-07T02:08:17;101584.72;;;10.02;36.40
72330;BME280;60660;52.076;5.110;2023-04-07T02:10:41;101581.68;;;9.09;36.17
72330;BME280;60660;52.076;5.110;2023-04-07T02:13:09;101580.94;;;9.19;36.53
72330;BME280;60660;52.076;5.110;2023-04-07T02:15:32;101582.00;;;9.41;36.37
72330;BME280;60660;52.076;5.110;2023-04-07T02:17:58;101577.88;;;8.69;36.52
72330;BME280;60660;52.076;5.110;2023-04-07T02:20:22;101578.09;;;8.91;37.20
72330;BME280;60660;52.076;5.110;2023-04-07T02:22:48;101575.94;;;8.84;36.66
72330;BME280;60660;52.076;5.110;2023-04-07T02:25:20;101570.47;;;8.43;37.16
72330;BME280;60660;52.076;5.110;2023-04-07T02:27:43;101572.04;;;7.46;38.46
72330;BME280;60660;52.076;5.110;2023-04-07T02:30:05;101570.29;;;8.75;37.75
72330;BME280;60660;52.076;5.110;2023-04-07T02:32:29;101570.18;;;8.62;38.10
72330;BME280;60660;52.076;5.110;2023-04-07T02:34:55;101566.04;;;7.48;38.92
72330;BME280;60660;52.076;5.110;2023-04-07T02:37:20;101564.82;;;8.47;37.97
72330;BME280;60660;52.076;5.110;2023-04-07T02:39:45;101564.30;;;9.11;36.95
72330;BME280;60660;52.076;5.110;2023-04-07T02:42:11;101567.13;;;9.98;35.90
72330;BME280;60660;52.076;5.110;2023-04-07T02:44:46;101564.43;;;8.68;37.21
72330;BME280;60660;52.076;5.110;2023-04-07T02:47:12;101568.56;;;10.14;35.89
72330;BME280;60660;52.076;5.110;2023-04-07T02:49:37;101568.92;;;8.00;37.16
72330;BME280;60660;52.076;5.110;2023-04-07T02:52:03;101573.66;;;9.12;36.51
72330;BME280;60660;52.076;5.110;2023-04-07T02:54:28;101574.48;;;9.75;36.18
72330;BME280;60660;52.076;5.110;2023-04-07T02:56:53;101574.89;;;8.48;36.85
72330;BME280;60660;52.076;5.110;2023-04-07T02:59:18;101578.24;;;8.75;36.58
72330;BME280;60660;52.076;5.110;2023-04-07T03:01:44;101579.34;;;9.38;35.82
72330;BME280;60660;52.076;5.110;2023-04-07T03:04:09;101580.48;;;9.86;35.81
72330;BME280;60660;52.076;5.110;2023-04-07T03:06:34;101580.74;;;9.22;35.65
72330;BME280;60660;52.076;5.110;2023-04-07T03:08:59;101579.74;;;9.03;36.49
72330;BME280;60660;52.076;5.110;2023-04-07T03:11:25;101580.60;;;9.95;35.82
72330;BME280;60660;52.076;5.110;2023-04-07T03:13:50;101579.46;;;9.61;35.63
72330;BME280;60660;52.076;5.110;2023-04-07T03:16:15;101582.88;;;10.35;34.74
72330;BME280;60660;52.076;5.110;2023-04-07T03:18:41;101577.65;;;8.48;35.75
72330;BME280;60660;52.076;5.110;2023-04-07T03:21:06;101577.76;;;9.25;35.92
72330;BME280;60660;52.076;5.110;2023-04-07T03:23:31;101577.75;;;9.84;34.94
72330;BME280;60660;52.076;5.110;2023-04-07T03:25:56;101577.68;;;9.80;34.94
72330;BME280;60660;52.076;5.110;2023-04-07T03:28:22;101574.45;;;10.33;34.88
72330;BME280;60660;52.076;5.110;2023-04-07T03:30:47;101577.65;;;10.19;34.52
72330;BME280;60660;52.076;5.110;2023-04-07T03:33:12;101575.62;;;9.45;35.22
72330;BME280;60660;52.076;5.110;2023-04-07T03:35:38;101577.46;;;9.12;35.20
72330;BME280;60660;52.076;5.110;2023-04-07T03:38:03;101580.98;;;9.64;35.22
72330;BME280;60660;52.076;5.110;2023-04-07T03:40:29;101577.64;;;9.61;35.26
72330;BME280;60660;52.076;5.110;2023-04-07T03:42:54;101579.42;;;9.95;34.92
72330;BME280;60660;52.076;5.110;2023-04-07T03:45:24;101578.87;;;10.10;34.92
72330;BME280;60660;52.076;5.110;2023-04-07T03:47:45;101583.32;;;10.22;34.74
72330;BME280;60660;52.076;5.110;2023-04-07T03:50:10;101584.11;;;10.05;35.08
72330;BME280;60660;52.076;5.110;2023-04-07T03:52:35;101580.20;;;8.85;35.57
72330;BME280;60660;52.076;5.110;2023-04-07T03:55:01;101579.32;;;8.64;36.71
72330;BME280;60660;52.076;5.110;2023-04-07T03:57:26;101583.59;;;9.43;36.23
72330;BME280;60660;52.076;5.110;2023-04-07T03:59:53;101585.94;;;8.63;36.96
72330;BME280;60660;52.076;5.110;2023-04-07T04:02:17;101589.84;;;9.30;36.27
72330;BME280;60660;52.076;5.110;2023-04-07T04:04:42;101596.38;;;9.03;36.23
72330;BME280;60660;52.076;5.110;2023-04-07T04:07:08;101593.79;;;9.15;35.93
72330;BME280;60660;52.076;5.110;2023-04-07T04:09:33;101595.15;;;9.39;35.74
72330;BME280;60660;52.076;5.110;2023-04-07T04:11:59;101594.31;;;9.04;36.26
72330;BME280;60660;52.076;5.110;2023-04-07T04:14:24;101592.52;;;8.55;37.14
72330;BME280;60660;52.076;5.110;2023-04-07T04:16:49;101596.61;;;7.76;38.32
72330;BME280;60660;52.076;5.110;2023-04-07T04:19:14;101595.64;;;7.31;38.81
72330;BME280;60660;52.076;5.110;2023-04-07T04:21:39;101596.66;;;6.96;38.91
72330;BME280;60660;52.076;5.110;2023-04-07T04:24:04;101599.15;;;7.06;39.31
72330;BME280;60660;52.076;5.110;2023-04-07T04:26:29;101601.46;;;7.33;39.34
72330;BME280;60660;52.076;5.110;2023-04-07T04:28:55;101606.19;;;6.17;40.95
72330;BME280;60660;52.076;5.110;2023-04-07T04:31:21;101612.87;;;7.11;40.60
72330;BME280;60660;52.076;5.110;2023-04-07T04:33:46;101611.52;;;6.36;40.40
72330;BME280;60660;52.076;5.110;2023-04-07T04:36:11;101611.66;;;6.98;40.28
72330;BME280;60660;52.076;5.110;2023-04-07T04:38:37;101613.93;;;6.31;40.32
72330;BME280;60660;52.076;5.110;2023-04-07T04:41:02;101612.10;;;7.51;39.46
72330;BME280;60660;52.076;5.110;2023-04-07T04:43:29;101611.96;;;7.88;38.79
72330;BME280;60660;52.076;5.110;2023-04-07T04:45:55;101616.14;;;7.93;38.72
72330;BME280;60660;52.076;5.110;2023-04-07T04:48:29;101620.56;;;8.02;38.49
72330;BME280;60660;52.076;5.110;2023-04-07T04:50:43;101619.35;;;7.38;38.76
72330;BME280;60660;52.076;5.110;2023-04-07T04:53:09;101626.67;;;7.54;38.25
72330;BME280;60660;52.076;5.110;2023-04-07T04:55:34;101629.75;;;6.77;39.78
72330;BME280;60660;52.076;5.110;2023-04-07T04:57:59;101634.68;;;6.56;40.20
72330;BME280;60660;52.076;5.110;2023-04-07T05:00:24;101635.03;;;6.95;39.95
72330;BME280;60660;52.076;5.110;2023-04-07T05:02:50;101632.70;;;7.35;39.24
72330;BME280;60660;52.076;5.110;2023-04-07T05:05:16;101634.79;;;7.84;38.74
72330;BME280;60660;52.076;5.110;2023-04-07T05:07:41;101632.22;;;6.55;39.02
72330;BME280;60660;52.076;5.110;2023-04-07T05:10:07;101633.77;;;7.30;38.58
72330;BME280;60660;52.076;5.110;2023-04-07T05:12:32;101636.36;;;7.73;38.61
72330;BME280;60660;52.076;5.110;2023-04-07T05:14:58;101637.43;;;6.88;38.78
72330;BME280;60660;52.076;5.110;2023-04-07T05:17:23;101637.66;;;8.50;37.36
72330;BME280;60660;52.076;5.110;2023-04-07T05:19:51;101638.11;;;8.11;37.72
72330;BME280;60660;52.076;5.110;2023-04-07T05:22:13;101636.52;;;7.91;37.37
72330;BME280;60660;52.076;5.110;2023-04-07T05:24:39;101638.92;;;7.43;37.52
72330;BME280;60660;52.076;5.110;2023-04-07T05:27:04;101639.99;;;7.65;38.00
72330;BME280;60660;52.076;5.110;2023-04-07T05:29:29;101647.76;;;8.81;36.58
72330;BME280;60660;52.076;5.110;2023-04-07T05:31:55;101649.55;;;7.88;37.43
72330;BME280;60660;52.076;5.110;2023-04-07T05:34:20;101650.44;;;8.44;37.17
72330;BME280;60660;52.076;5.110;2023-04-07T05:36:46;101651.90;;;8.34;37.05
72330;BME280;60660;52.076;5.110;2023-04-07T05:39:16;101652.61;;;8.84;36.64
72330;BME280;60660;52.076;5.110;2023-04-07T05:41:36;101650.50;;;8.54;35.81
72330;BME280;60660;52.076;5.110;2023-04-07T05:44:02;101651.59;;;8.12;36.47
72330;BME280;60660;52.076;5.110;2023-04-07T05:46:27;101652.30;;;8.31;36.69
72330;BME280;60660;52.076;5.110;2023-04-07T05:48:52;101656.02;;;8.76;36.45
72330;BME280;60660;52.076;5.110;2023-04-07T05:51:17;101656.14;;;8.82;36.17
72330;BME280;60660;52.076;5.110;2023-04-07T05:53:43;101658.81;;;8.82;35.86
72330;BME280;60660;52.076;5.110;2023-04-07T05:56:08;101659.92;;;9.56;35.87
72330;BME280;60660;52.076;5.110;2023-04-07T05:58:34;101660.19;;;9.39;35.17
72330;BME280;60660;52.076;5.110;2023-04-07T06:00:59;101661.52;;;9.07;35.54
72330;BME280;60660;52.076;5.110;2023-04-07T06:03:24;101661.96;;;8.52;36.12
72330;BME280;60660;52.076;5.110;2023-04-07T06:05:49;101664.54;;;8.51;36.22
72330;BME280;60660;52.076;5.110;2023-04-07T06:08:15;101665.91;;;8.08;36.84
72330;BME280;60660;52.076;5.110;2023-04-07T06:10:40;101667.07;;;7.66;37.10
72330;BME280;60660;52.076;5.110;2023-04-07T06:13:05;101668.72;;;8.18;36.62
72330;BME280;60660;52.076;5.110;2023-04-07T06:15:30;101674.03;;;8.02;36.85
72330;BME280;60660;52.076;5.110;2023-04-07T06:17:56;101677.12;;;7.86;37.36
72330;BME280;60660;52.076;5.110;2023-04-07T06:20:21;101677.20;;;7.85;37.14
72330;BME280;60660;52.076;5.110;2023-04-07T06:22:47;101678.59;;;6.81;37.72
72330;BME280;60660;52.076;5.110;2023-04-07T06:25:12;101675.88;;;8.54;36.21
72330;BME280;60660;52.076;5.110;2023-04-07T06:27:37;101678.79;;;8.34;35.46
72330;BME280;60660;52.076;5.110;2023-04-07T06:30:03;101681.67;;;8.60;35.46
72330;BME280;60660;52.076;5.110;2023-04-07T06:32:29;101681.85;;;8.76;35.20
72330;BME280;60660;52.076;5.110;2023-04-07T06:34:54;101689.60;;;8.84;35.02
72330;BME280;60660;52.076;5.110;2023-04-07T06:37:19;101688.21;;;8.93;35.25
72330;BME280;60660;52.076;5.110;2023-04-07T06:39:45;101687.27;;;8.46;35.39
72330;BME280;60660;52.076;5.110;2023-04-07T06:42:10;101690.35;;;8.93;35.17
72330;BME280;60660;52.076;5.110;2023-04-07T06:44:35;101692.64;;;9.13;34.48
72330;BME280;60660;52.076;5.110;2023-04-07T06:47:00;101694.26;;;8.41;35.58
72330;BME280;60660;52.076;5.110;2023-04-07T06:49:28;101693.73;;;8.11;36.31
72330;BME280;60660;52.076;5.110;2023-04-07T06:51:51;101696.08;;;7.96;35.66
72330;BME280;60660;52.076;5.110;2023-04-07T06:54:17;101699.15;;;9.46;35.07
72330;BME280;60660;52.076;5.110;2023-04-07T06:56:42;101700.64;;;9.29;34.08
72330;BME280;60660;52.076;5.110;2023-04-07T06:59:07;101704.26;;;9.64;34.09
72330;BME280;60660;52.076;5.110;2023-04-07T07:01:32;101711.44;;;10.28;33.45
72330;BME280;60660;52.076;5.110;2023-04-07T07:03:58;101714.12;;;10.10;33.39
72330;BME280;60660;52.076;5.110;2023-04-07T07:06:23;101717.85;;;10.48;33.17
72330;BME280;60660;52.076;5.110;2023-04-07T07:08:49;101717.11;;;8.86;34.40
72330;BME280;60660;52.076;5.110;2023-04-07T07:11:14;101721.35;;;10.49;33.23
72330;BME280;60660;52.076;5.110;2023-04-07T07:13:39;101717.84;;;9.48;33.57
72330;BME280;60660;52.076;5.110;2023-04-07T07:16:05;101719.11;;;9.26;34.61
72330;BME280;60660;52.076;5.110;2023-04-07T07:18:30;101725.31;;;10.37;33.57
72330;BME280;60660;52.076;5.110;2023-04-07T07:20:55;101721.88;;;9.20;34.01
72330;BME280;60660;52.076;5.110;2023-04-07T07:23:20;101722.64;;;9.85;33.88
72330;BME280;60660;52.076;5.110;2023-04-07T07:25:46;101726.56;;;8.67;35.04
72330;BME280;60660;52.076;5.110;2023-04-07T07:28:11;101732.80;;;9.79;34.01
72330;BME280;60660;52.076;5.110;2023-04-07T07:30:38;101736.60;;;9.93;33.24
72330;BME280;60660;52.076;5.110;2023-04-07T07:33:02;101738.98;;;10.22;33.18
72330;BME280;60660;52.076;5.110;2023-04-07T07:35:28;101739.00;;;9.55;33.65
72330;BME280;60660;52.076;5.110;2023-04-07T07:37:53;101742.32;;;10.14;33.48
72330;BME280;60660;52.076;5.110;2023-04-07T07:40:18;101746.05;;;9.96;33.57
72330;BME280;60660;52.076;5.110;2023-04-07T07:42:45;101748.71;;;9.63;33.79
72330;BME280;60660;52.076;5.110;2023-04-07T07:45:09;101749.20;;;9.89;33.83
72330;BME280;60660;52.076;5.110;2023-04-07T07:47:34;101749.04;;;8.90;34.68
72330;BME280;60660;52.076;5.110;2023-04-07T07:50:00;101748.85;;;8.55;35.40
72330;BME280;60660;52.076;5.110;2023-04-07T07:52:24;101754.56;;;8.61;35.80
72330;BME280;60660;52.076;5.110;2023-04-07T07:54:50;101758.10;;;8.78;35.47
72330;BME280;60660;52.076;5.110;2023-04-07T07:57:15;101759.79;;;8.15;36.44
72330;BME280;60660;52.076;5.110;2023-04-07T07:59:40;101760.48;;;7.10;37.17
72330;BME280;60660;52.076;5.110;2023-04-07T08:02:06;101760.47;;;8.57;36.02
72330;BME280;60660;52.076;5.110;2023-04-07T08:04:31;101760.86;;;8.29;36.03
72330;BME280;60660;52.076;5.110;2023-04-07T08:06:56;101768.77;;;7.17;37.60
72330;BME280;60660;52.076;5.110;2023-04-07T08:09:22;101772.95;;;7.35;37.51
72330;BME280;60660;52.076;5.110;2023-04-07T08:11:47;101774.04;;;7.25;37.03
72330;BME280;60660;52.076;5.110;2023-04-07T08:14:12;101775.45;;;8.07;36.53
72330;BME280;60660;52.076;5.110;2023-04-07T08:16:38;101774.40;;;7.56;35.75
72330;BME280;60660;52.076;5.110;2023-04-07T08:19:04;101781.27;;;8.62;34.92
72330;BME280;60660;52.076;5.110;2023-04-07T08:21:29;101784.39;;;8.86;34.87
72330;BME280;60660;52.076;5.110;2023-04-07T08:23:54;101787.52;;;9.86;33.63
72330;BME280;60660;52.076;5.110;2023-04-07T08:26:19;101787.46;;;10.99;32.30
72330;BME280;60660;52.076;5.110;2023-04-07T08:28:44;101789.49;;;10.12;31.80
72330;BME280;60660;52.076;5.110;2023-04-07T08:31:10;101790.47;;;9.17;33.35
72330;BME280;60660;52.076;5.110;2023-04-07T08:33:35;101790.96;;;7.54;34.94
72330;BME280;60660;52.076;5.110;2023-04-07T08:35:59;101793.53;;;8.52;35.15
72330;BME280;60660;52.076;5.110;2023-04-07T08:38:25;101798.02;;;10.07;33.66
72330;BME280;60660;52.076;5.110;2023-04-07T08:40:57;101796.54;;;8.51;34.64
72330;BME280;60660;52.076;5.110;2023-04-07T08:43:17;101799.86;;;9.29;34.24
72330;BME280;60660;52.076;5.110;2023-04-07T08:45:42;101800.87;;;10.30;32.36
72330;BME280;60660;52.076;5.110;2023-04-07T08:48:11;101799.13;;;10.30;32.20
72330;BME280;60660;52.076;5.110;2023-04-07T08:50:33;101803.12;;;10.01;32.39
72330;BME280;60660;52.076;5.110;2023-04-07T08:52:59;101806.65;;;10.17;31.99
72330;BME280;60660;52.076;5.110;2023-04-07T08:55:23;101808.56;;;11.26;31.38
72330;BME280;60660;52.076;5.110;2023-04-07T08:57:49;101809.03;;;10.09;32.00
72330;BME280;60660;52.076;5.110;2023-04-07T09:00:14;101808.82;;;11.75;31.07
72330;BME280;60660;52.076;5.110;2023-04-07T09:02:41;101809.90;;;11.48;30.39
72330;BME280;60660;52.076;5.110;2023-04-07T09:05:06;101813.11;;;12.79;29.95
72330;BME280;60660;52.076;5.110;2023-04-07T09:07:30;101816.71;;;11.76;29.64
72330;BME280;60660;52.076;5.110;2023-04-07T09:09:55;101813.09;;;12.87;28.97
72330;BME280;60660;52.076;5.110;2023-04-07T09:12:20;101816.47;;;13.27;29.17
72330;BME280;60660;52.076;5.110;2023-04-07T09:14:45;101821.38;;;11.63;28.82
72330;BME280;60660;52.076;5.110;2023-04-07T09:17:11;101822.97;;;11.84;29.68
72330;BME280;60660;52.076;5.110;2023-04-07T09:19:42;101819.13;;;12.31;29.61
72330;BME280;60660;52.076;5.110;2023-04-07T09:22:02;101819.94;;;10.90;30.33
72330;BME280;60660;52.076;5.110;2023-04-07T09:24:29;101825.78;;;11.21;30.73
72330;BME280;60660;52.076;5.110;2023-04-07T09:27:08;101824.13;;;10.53;31.52
72330;BME280;60660;52.076;5.110;2023-04-07T09:29:19;101823.54;;;10.93;32.06
72330;BME280;60660;52.076;5.110;2023-04-07T09:31:45;101824.01;;;11.70;31.23
72330;BME280;60660;52.076;5.110;2023-04-07T09:34:23;101825.17;;;12.01;29.62
72330;BME280;60660;52.076;5.110;2023-04-07T09:36:40;101826.30;;;11.95;29.59
72330;BME280;60660;52.076;5.110;2023-04-07T09:39:07;101827.01;;;11.23;30.52
72330;BME280;60660;52.076;5.110;2023-04-07T09:41:27;101827.01;;;12.21;30.13
72330;BME280;60660;52.076;5.110;2023-04-07T09:43:56;101827.80;;;11.63;30.07
72330;BME280;60660;52.076;5.110;2023-04-07T09:46:16;101829.51;;;11.99;30.61
72330;BME280;60660;52.076;5.110;2023-04-07T09:48:42;101828.87;;;10.62;30.20
72330;BME280;60660;52.076;5.110;2023-04-07T09:51:07;101827.58;;;11.23;30.59
72330;BME280;60660;52.076;5.110;2023-04-07T09:53:41;101831.87;;;11.78;30.13
72330;BME280;60660;52.076;5.110;2023-04-07T09:55:57;101833.89;;;12.29;29.88
72330;BME280;60660;52.076;5.110;2023-04-07T09:58:22;101830.73;;;10.76;30.59
72330;BME280;60660;52.076;5.110;2023-04-07T10:00:48;101832.09;;;11.12;30.88
72330;BME280;60660;52.076;5.110;2023-04-07T10:03:14;101840.13;;;11.63;30.81
72330;BME280;60660;52.076;5.110;2023-04-07T10:05:38;101839.69;;;8.90;32.59
72330;BME280;60660;52.076;5.110;2023-04-07T10:08:05;101841.64;;;10.16;32.04
72330;BME280;60660;52.076;5.110;2023-04-07T10:10:30;101843.35;;;9.56;33.31
72330;BME280;60660;52.076;5.110;2023-04-07T10:12:55;101836.50;;;9.17;33.25
72330;BME280;60660;52.076;5.110;2023-04-07T10:15:19;101842.05;;;9.77;33.31
72330;BME280;60660;52.076;5.110;2023-04-07T10:17:46;101841.03;;;9.47;32.86
72330;BME280;60660;52.076;5.110;2023-04-07T10:20:10;101842.63;;;8.46;33.66
72330;BME280;60660;52.076;5.110;2023-04-07T10:22:36;101844.97;;;10.50;32.24
72330;BME280;60660;52.076;5.110;2023-04-07T10:25:04;101845.87;;;10.40;31.33
72330;BME280;60660;52.076;5.110;2023-04-07T10:27:30;101847.02;;;10.42;31.54
72330;BME280;60660;52.076;5.110;2023-04-07T10:29:52;101847.90;;;11.05;31.16
72330;BME280;60660;52.076;5.110;2023-04-07T10:32:16;101849.80;;;11.33;30.78
72330;BME280;60660;52.076;5.110;2023-04-07T10:34:58;101852.65;;;10.66;30.71
72330;BME280;60660;52.076;5.110;2023-04-07T10:37:09;101861.11;;;10.09;31.77
72330;BME280;60660;52.076;5.110;2023-04-07T10:39:32;101863.14;;;8.27;34.07
72330;BME280;60660;52.076;5.110;2023-04-07T10:41:57;101864.80;;;8.72;34.56
72330;BME280;60660;52.076;5.110;2023-04-07T10:44:55;101864.21;;;8.93;34.88
72330;BME280;60660;52.076;5.110;2023-04-07T10:47:05;101867.81;;;9.17;33.89
72330;BME280;60660;52.076;5.110;2023-04-07T10:49:14;101872.93;;;9.75;33.57
72330;BME280;60660;52.076;5.110;2023-04-07T10:51:39;101876.84;;;9.60;32.72
72330;BME280;60660;52.076;5.110;2023-04-07T10:54:14;101870.29;;;8.80;33.50
72330;BME280;60660;52.076;5.110;2023-04-07T10:57:04;101875.33;;;8.22;34.70
72330;BME280;60660;52.076;5.110;2023-04-07T10:59:13;101871.41;;;9.40;33.53
72330;BME280;60660;52.076;5.110;2023-04-07T11:01:21;101871.35;;;10.43;32.57
72330;BME280;60660;52.076;5.110;2023-04-07T11:04:01;101870.70;;;10.29;31.58
72330;BME280;60660;52.076;5.110;2023-04-07T11:06:12;101873.16;;;11.43;30.61
72330;BME280;60660;52.076;5.110;2023-04-07T11:08:38;101874.79;;;11.04;30.90
72330;BME280;60660;52.076;5.110;2023-04-07T11:11:02;101878.28;;;10.93;30.87
72330;BME280;60660;52.076;5.110;2023-04-07T11:13:27;101877.53;;;11.43;30.81
72330;BME280;60660;52.076;5.110;2023-04-07T11:15:53;101878.46;;;11.63;30.53
72330;BME280;60660;52.076;5.110;2023-04-07T11:18:19;101882.64;;;12.24;29.88
72330;BME280;60660;52.076;5.110;2023-04-07T11:20:46;101888.91;;;11.64;30.12
72330;BME280;60660;52.076;5.110;2023-04-07T11:23:08;101887.95;;;11.32;30.17
72330;BME280;60660;52.076;5.110;2023-04-07T11:25:34;101887.79;;;11.46;30.24
72330;BME280;60660;52.076;5.110;2023-04-07T11:28:00;101891.12;;;10.52;31.09
72330;BME280;60660;52.076;5.110;2023-04-07T11:30:24;101889.73;;;11.47;30.71
72330;BME280;60660;52.076;5.110;2023-04-07T11:32:50;101893.34;;;10.35;31.93
72330;BME280;60660;52.076;5.110;2023-04-07T11:35:15;101892.66;;;10.64;31.86
72330;BME280;60660;52.076;5.110;2023-04-07T11:37:40;101890.91;;;9.86;31.78
72330;BME280;60660;52.076;5.110;2023-04-07T11:40:07;101893.38;;;9.79;32.48
72330;BME280;60660;52.076;5.110;2023-04-07T11:42:32;101893.25;;;11.15;31.34
72330;BME280;60660;52.076;5.110;2023-04-07T11:44:56;101896.76;;;10.35;31.13
72330;BME280;60660;52.076;5.110;2023-04-07T11:47:33;101901.23;;;10.03;31.06
72330;BME280;60660;52.076;5.110;2023-04-07T11:49:47;101899.08;;;12.01;30.20
72330;BME280;60660;52.076;5.110;2023-04-07T11:52:12;101901.46;;;12.49;29.41
72330;BME280;60660;52.076;5.110;2023-04-07T11:54:40;101900.17;;;12.89;28.40
72330;BME280;60660;52.076;5.110;2023-04-07T11:57:02;101898.72;;;13.12;27.82
72330;BME280;60660;52.076;5.110;2023-04-07T11:59:28;101900.75;;;13.08;28.18
72330;BME280;60660;52.076;5.110;2023-04-07T12:01:53;101902.77;;;12.16;29.02
72330;BME280;60660;52.076;5.110;2023-04-07T12:04:18;101905.73;;;12.84;29.32
72330;BME280;60660;52.076;5.110;2023-04-07T12:06:44;101907.07;;;13.04;28.09
72330;BME280;60660;52.076;5.110;2023-04-07T12:09:24;101907.92;;;14.19;27.43
72330;BME280;60660;52.076;5.110;2023-04-07T12:11:34;101913.24;;;11.35;28.60
72330;BME280;60660;52.076;5.110;2023-04-07T12:13:59;101912.17;;;11.21;29.10
72330;BME280;60660;52.076;5.110;2023-04-07T12:16:24;101914.23;;;11.28;29.49
72330;BME280;60660;52.076;5.110;2023-04-07T12:18:50;101916.03;;;11.34;29.75
72330;BME280;60660;52.076;5.110;2023-04-07T12:21:15;101918.02;;;11.31;29.86
72330;BME280;60660;52.076;5.110;2023-04-07T12:23:46;101924.11;;;11.48;29.65
72330;BME280;60660;52.076;5.110;2023-04-07T12:26:06;101925.87;;;12.04;29.72
72330;BME280;60660;52.076;5.110;2023-04-07T12:28:31;101925.25;;;11.17;30.98
72330;BME280;60660;52.076;5.110;2023-04-07T12:30:57;101927.75;;;10.55;32.16
72330;BME280;60660;52.076;5.110;2023-04-07T12:33:22;101930.26;;;10.56;32.26
72330;BME280;60660;52.076;5.110;2023-04-07T12:35:47;101932.03;;;10.09;32.29
72330;BME280;60660;52.076;5.110;2023-04-07T12:38:12;101932.41;;;10.97;31.20
72330;BME280;60660;52.076;5.110;2023-04-07T12:40:38;101938.90;;;12.13;30.12
72330;BME280;60660;52.076;5.110;2023-04-07T12:43:04;101938.87;;;10.89;31.04
72330;BME280;60660;52.076;5.110;2023-04-07T12:45:29;101941.74;;;10.25;31.61
72330;BME280;60660;52.076;5.110;2023-04-07T12:47:55;101940.77;;;10.73;31.71